createdAt,value
2023-03-12T00:00:13.264Z,973.42
2023-03-12T00:01:13.240Z,973.43
2023-03-12T00:02:13.235Z,973.43
2023-03-12T00:03:13.202Z,973.42
2023-03-12T00:04:13.189Z,973.53
2023-03-12T00:05:13.180Z,973.49
2023-03-12T00:06:13.165Z,973.50
2023-03-12T00:07:13.152Z,973.48
2023-03-12T00:08:13.165Z,973.39
2023-03-12T00:09:13.123Z,973.42
2023-03-12T00:10:13.107Z,973.39
2023-03-12T00:11:13.299Z,973.55
2023-03-12T00:12:13.089Z,973.52
2023-03-12T00:13:13.064Z,973.55
2023-03-12T00:14:13.099Z,973.56
2023-03-12T00:15:13.040Z,973.52
2023-03-12T00:16:13.138Z,973.53
2023-03-12T00:17:13.020Z,973.42
2023-03-12T00:18:13.005Z,973.52
2023-03-12T00:19:12.989Z,973.41
2023-03-12T00:20:12.976Z,973.49
2023-03-12T00:21:12.966Z,973.46
2023-03-12T00:22:12.948Z,973.46
2023-03-12T00:23:12.939Z,973.45
2023-03-12T00:24:12.953Z,973.46
2023-03-12T00:25:12.930Z,973.41
2023-03-12T00:26:12.900Z,973.38
2023-03-12T00:27:12.883Z,973.36
2023-03-12T00:28:12.871Z,973.36
2023-03-12T00:29:12.872Z,973.32
2023-03-12T00:30:12.839Z,973.39
2023-03-12T00:31:12.938Z,973.34
2023-03-12T00:32:12.817Z,973.38
2023-03-12T00:33:12.800Z,973.42
2023-03-12T00:34:12.787Z,973.33
2023-03-12T00:35:12.771Z,973.35
2023-03-12T00:36:12.757Z,973.29
2023-03-12T00:37:12.746Z,973.37
2023-03-12T00:38:12.731Z,973.32
2023-03-12T00:39:12.720Z,973.32
2023-03-12T00:40:12.736Z,973.34
2023-03-12T00:41:12.700Z,973.39
2023-03-12T00:42:12.681Z,973.38
2023-03-12T00:43:12.669Z,973.42
2023-03-12T00:44:12.654Z,973.41
2023-03-12T00:45:12.645Z,973.38
2023-03-12T00:46:12.697Z,973.39
2023-03-12T00:47:12.626Z,973.41
2023-03-12T00:48:12.651Z,973.42
2023-03-12T00:49:12.591Z,973.41
2023-03-12T00:50:12.568Z,973.34
2023-03-12T00:51:12.567Z,973.36
2023-03-12T00:52:12.552Z,973.38
2023-03-12T00:53:12.530Z,973.36
2023-03-12T00:54:12.516Z,973.36
2023-03-12T00:55:12.503Z,973.33
2023-03-12T00:56:12.527Z,973.27
2023-03-12T00:57:12.494Z,973.28
2023-03-12T00:58:12.466Z,973.31
2023-03-12T00:59:12.452Z,973.31
2023-03-12T01:00:12.437Z,973.26
2023-03-12T01:01:12.548Z,973.28
2023-03-12T01:02:12.407Z,973.23
2023-03-12T01:03:12.428Z,973.27
2023-03-12T01:04:12.457Z,973.26
2023-03-12T01:05:12.376Z,973.25
2023-03-12T01:06:12.357Z,973.24
2023-03-12T01:07:12.352Z,973.27
2023-03-12T01:08:12.335Z,973.30
2023-03-12T01:09:12.335Z,973.27
2023-03-12T01:10:12.308Z,973.30
2023-03-12T01:11:12.296Z,973.34
2023-03-12T01:12:12.303Z,973.28
2023-03-12T01:13:12.267Z,973.38
2023-03-12T01:14:12.252Z,973.34
2023-03-12T01:15:12.251Z,973.35
2023-03-12T01:16:12.332Z,973.35
2023-03-12T01:17:12.225Z,973.32
2023-03-12T01:18:12.200Z,973.30
2023-03-12T01:19:12.199Z,973.32
2023-03-12T01:20:12.174Z,973.26
2023-03-12T01:21:12.169Z,973.19
2023-03-12T01:22:12.149Z,973.24
2023-03-12T01:23:12.145Z,973.19
2023-03-12T01:24:12.120Z,973.07
2023-03-12T01:25:12.122Z,973.15
2023-03-12T01:26:12.104Z,973.16
2023-03-12T01:27:12.078Z,973.14
2023-03-12T01:28:12.093Z,973.16
2023-03-12T01:29:12.063Z,973.17
2023-03-12T01:30:12.043Z,973.23
2023-03-12T01:31:12.093Z,973.14
2023-03-12T01:32:12.021Z,973.11
2023-03-12T01:33:12.006Z,973.14
2023-03-12T01:34:11.989Z,973.14
2023-03-12T01:35:12.006Z,973.12
2023-03-12T01:36:11.984Z,973.21
2023-03-12T01:37:11.951Z,973.21
2023-03-12T01:38:11.943Z,973.22
2023-03-12T01:39:11.921Z,973.27
2023-03-12T01:40:11.916Z,973.25
2023-03-12T01:41:11.900Z,973.30
2023-03-12T01:42:11.881Z,973.26
2023-03-12T01:43:11.862Z,973.31
2023-03-12T01:44:11.879Z,973.26
2023-03-12T01:45:11.836Z,973.24
2023-03-12T01:46:11.946Z,973.30
2023-03-12T01:47:11.810Z,973.28
2023-03-12T01:48:11.792Z,973.30
2023-03-12T01:49:11.782Z,973.32
2023-03-12T01:50:11.770Z,973.32
2023-03-12T01:51:11.755Z,973.33
2023-03-12T01:52:11.750Z,973.34
2023-03-12T01:53:11.734Z,973.33
2023-03-12T01:54:11.722Z,973.29
2023-03-12T01:55:11.704Z,973.28
2023-03-12T01:56:11.702Z,973.33
2023-03-12T01:57:11.681Z,973.30
2023-03-12T01:58:11.668Z,973.31
2023-03-12T01:59:11.682Z,973.29
2023-03-12T02:00:11.663Z,973.31
2023-03-12T02:01:11.644Z,973.24
2023-03-12T02:02:11.612Z,973.27
2023-03-12T02:03:11.601Z,973.21
2023-03-12T02:04:11.714Z,973.24
2023-03-12T02:05:11.577Z,973.27
2023-03-12T02:06:11.561Z,973.31
2023-03-12T02:07:11.606Z,973.26
2023-03-12T02:08:11.534Z,973.25
2023-03-12T02:09:11.523Z,973.25
2023-03-12T02:10:11.524Z,973.21
2023-03-12T02:11:11.502Z,973.21
2023-03-12T02:12:11.686Z,973.28
2023-03-12T02:13:11.468Z,973.28
2023-03-12T02:14:11.457Z,973.26
2023-03-12T02:15:11.439Z,973.25
2023-03-12T02:16:11.764Z,973.24
2023-03-12T02:17:11.622Z,973.27
2023-03-12T02:18:11.406Z,973.26
2023-03-12T02:19:11.387Z,973.28
2023-03-12T02:20:11.376Z,973.23
2023-03-12T02:21:11.608Z,973.28
2023-03-12T02:22:11.798Z,973.27
2023-03-12T02:23:11.339Z,973.30
2023-03-12T02:24:11.324Z,973.30
2023-03-12T02:25:11.315Z,973.37
2023-03-12T02:26:11.298Z,973.29
2023-03-12T02:27:11.292Z,973.30
2023-03-12T02:28:11.280Z,973.24
2023-03-12T02:29:11.270Z,973.27
2023-03-12T02:30:11.246Z,973.30
2023-03-12T02:31:11.234Z,973.28
2023-03-12T02:32:11.247Z,973.28
2023-03-12T02:33:11.211Z,973.22
2023-03-12T02:34:11.196Z,973.29
2023-03-12T02:35:11.214Z,973.17
2023-03-12T02:36:11.243Z,973.24
2023-03-12T02:37:11.158Z,973.26
2023-03-12T02:38:11.137Z,973.26
2023-03-12T02:39:11.140Z,973.31
2023-03-12T02:40:11.115Z,973.36
2023-03-12T02:41:11.100Z,973.27
2023-03-12T02:42:11.086Z,973.32
2023-03-12T02:43:11.077Z,973.19
2023-03-12T02:44:11.059Z,973.25
2023-03-12T02:45:11.047Z,973.25
2023-03-12T02:46:11.070Z,973.33
2023-03-12T02:47:11.026Z,973.33
2023-03-12T02:48:11.032Z,973.27
2023-03-12T02:49:11.143Z,973.24
2023-03-12T02:50:10.995Z,973.23
2023-03-12T02:51:10.973Z,973.21
2023-03-12T02:52:10.963Z,973.23
2023-03-12T02:53:10.944Z,973.22
2023-03-12T02:54:10.937Z,973.27
2023-03-12T02:55:10.933Z,973.25
2023-03-12T02:56:10.913Z,973.20
2023-03-12T02:57:10.897Z,973.23
2023-03-12T02:58:10.882Z,973.20
2023-03-12T02:59:10.861Z,973.22
2023-03-12T03:00:10.850Z,973.22
2023-03-12T03:01:10.871Z,973.24
2023-03-12T03:02:10.826Z,973.28
2023-03-12T03:03:10.815Z,973.20
2023-03-12T03:04:11.032Z,973.22
2023-03-12T03:05:10.792Z,973.18
2023-03-12T03:06:10.775Z,973.15
2023-03-12T03:07:10.766Z,973.19
2023-03-12T03:08:10.746Z,973.14
2023-03-12T03:09:10.734Z,973.13
2023-03-12T03:10:10.738Z,973.18
2023-03-12T03:11:10.710Z,973.18
2023-03-12T03:12:10.706Z,973.17
2023-03-12T03:13:10.688Z,973.09
2023-03-12T03:14:10.683Z,973.12
2023-03-12T03:15:10.661Z,973.10
2023-03-12T03:16:10.753Z,973.07
2023-03-12T03:17:10.651Z,973.03
2023-03-12T03:18:10.624Z,973.06
2023-03-12T03:19:10.625Z,973.04
2023-03-12T03:20:10.624Z,973.01
2023-03-12T03:21:10.574Z,972.99
2023-03-12T03:22:10.577Z,973.03
2023-03-12T03:23:10.554Z,972.99
2023-03-12T03:24:10.536Z,972.97
2023-03-12T03:25:10.538Z,972.99
2023-03-12T03:26:10.512Z,972.98
2023-03-12T03:27:10.505Z,972.91
2023-03-12T03:28:10.489Z,972.84
2023-03-12T03:29:10.487Z,972.89
2023-03-12T03:30:10.464Z,972.85
2023-03-12T03:31:10.547Z,972.87
2023-03-12T03:32:10.441Z,972.80
2023-03-12T03:33:10.429Z,972.86
2023-03-12T03:34:10.415Z,972.83
2023-03-12T03:35:10.401Z,972.84
2023-03-12T03:36:10.403Z,972.81
2023-03-12T03:37:10.374Z,972.77
2023-03-12T03:38:10.350Z,972.78
2023-03-12T03:39:10.344Z,972.77
2023-03-12T03:40:10.329Z,972.79
2023-03-12T03:41:10.318Z,972.77
2023-03-12T03:42:10.305Z,972.76
2023-03-12T03:43:10.289Z,972.74
2023-03-12T03:44:10.276Z,972.77
2023-03-12T03:45:10.275Z,972.79
2023-03-12T03:46:10.285Z,972.75
2023-03-12T03:47:10.236Z,972.72
2023-03-12T03:48:10.370Z,972.69
2023-03-12T03:49:10.219Z,972.70
2023-03-12T03:50:10.201Z,972.69
2023-03-12T03:51:10.183Z,972.77
2023-03-12T03:52:10.195Z,972.86
2023-03-12T03:53:10.161Z,972.96
2023-03-12T03:54:10.302Z,972.95
2023-03-12T03:55:10.136Z,973.03
2023-03-12T03:56:10.112Z,973.09
2023-03-12T03:57:10.400Z,973.06
2023-03-12T03:58:10.088Z,973.03
2023-03-12T03:59:10.335Z,972.95
2023-03-12T04:00:10.097Z,972.89
2023-03-12T04:01:10.064Z,972.89
2023-03-12T04:02:10.290Z,972.91
2023-03-12T04:03:10.104Z,972.88
2023-03-12T04:04:10.011Z,972.91
2023-03-12T04:05:10.001Z,972.97
2023-03-12T04:06:09.982Z,972.88
2023-03-12T04:07:09.970Z,972.87
2023-03-12T04:08:09.993Z,972.88
2023-03-12T04:09:09.950Z,972.92
2023-03-12T04:10:09.931Z,972.85
2023-03-12T04:11:09.952Z,972.84
2023-03-12T04:12:09.904Z,972.77
2023-03-12T04:13:09.890Z,972.89
2023-03-12T04:14:09.880Z,972.85
2023-03-12T04:15:09.862Z,972.84
2023-03-12T04:16:09.961Z,972.86
2023-03-12T04:17:09.845Z,972.76
2023-03-12T04:18:09.877Z,972.90
2023-03-12T04:19:09.827Z,972.81
2023-03-12T04:20:09.806Z,972.75
2023-03-12T04:21:09.794Z,972.80
2023-03-12T04:22:09.776Z,972.88
2023-03-12T04:23:09.777Z,972.91
2023-03-12T04:24:09.769Z,972.87
2023-03-12T04:25:09.745Z,972.84
2023-03-12T04:26:09.720Z,972.87
2023-03-12T04:27:09.737Z,972.84
2023-03-12T04:28:09.697Z,972.88
2023-03-12T04:29:09.685Z,972.91
2023-03-12T04:30:09.666Z,972.92
2023-03-12T04:31:09.678Z,972.87
2023-03-12T04:32:09.646Z,972.85
2023-03-12T04:33:09.634Z,972.79
2023-03-12T04:34:09.617Z,972.81
2023-03-12T04:35:09.610Z,972.82
2023-03-12T04:36:09.700Z,972.78
2023-03-12T04:37:09.579Z,972.80
2023-03-12T04:38:09.563Z,972.83
2023-03-12T04:39:09.551Z,972.84
2023-03-12T04:40:09.558Z,972.74
2023-03-12T04:41:09.523Z,972.72
2023-03-12T04:42:09.520Z,972.76
2023-03-12T04:43:09.504Z,972.74
2023-03-12T04:44:12.561Z,972.73
2023-03-12T04:45:09.475Z,972.75
2023-03-12T04:46:09.545Z,972.73
2023-03-12T04:47:09.447Z,972.72
2023-03-12T04:48:09.435Z,972.69
2023-03-12T04:49:09.455Z,972.72
2023-03-12T04:50:09.409Z,972.69
2023-03-12T04:51:09.398Z,972.66
2023-03-12T04:52:09.381Z,972.65
2023-03-12T04:53:09.416Z,972.66
2023-03-12T04:54:09.356Z,972.64
2023-03-12T04:55:09.342Z,972.64
2023-03-12T04:56:09.367Z,972.56
2023-03-12T04:57:09.322Z,972.57
2023-03-12T04:58:09.306Z,972.58
2023-03-12T04:59:09.496Z,972.56
2023-03-12T05:00:09.273Z,972.62
2023-03-12T05:01:09.269Z,972.63
2023-03-12T05:02:09.251Z,972.62
2023-03-12T05:03:09.354Z,972.57
2023-03-12T05:04:09.294Z,972.67
2023-03-12T05:05:09.215Z,972.64
2023-03-12T05:06:09.203Z,972.68
2023-03-12T05:07:09.203Z,972.64
2023-03-12T05:08:09.180Z,972.64
2023-03-12T05:09:09.158Z,972.64
2023-03-12T05:10:09.145Z,972.62
2023-03-12T05:11:09.134Z,972.63
2023-03-12T05:12:09.152Z,972.60
2023-03-12T05:13:09.110Z,972.61
2023-03-12T05:14:09.101Z,972.63
2023-03-12T05:15:09.093Z,972.62
2023-03-12T05:16:09.142Z,972.60
2023-03-12T05:17:09.057Z,972.56
2023-03-12T05:18:09.036Z,972.53
2023-03-12T05:19:09.029Z,972.49
2023-03-12T05:20:09.020Z,972.43
2023-03-12T05:21:09.005Z,972.47
2023-03-12T05:22:08.990Z,972.51
2023-03-12T05:23:08.978Z,972.53
2023-03-12T05:24:08.972Z,972.48
2023-03-12T05:25:08.952Z,972.50
2023-03-12T05:26:08.935Z,972.51
2023-03-12T05:27:08.918Z,972.46
2023-03-12T05:28:08.944Z,972.53
2023-03-12T05:29:08.915Z,972.54
2023-03-12T05:30:08.887Z,972.55
2023-03-12T05:31:08.966Z,972.56
2023-03-12T05:32:08.860Z,972.58
2023-03-12T05:33:08.846Z,972.57
2023-03-12T05:34:08.830Z,972.56
2023-03-12T05:35:08.830Z,972.67
2023-03-12T05:36:08.891Z,972.60
2023-03-12T05:37:08.784Z,972.57
2023-03-12T05:38:08.777Z,972.62
2023-03-12T05:39:08.785Z,972.66
2023-03-12T05:40:08.746Z,972.67
2023-03-12T05:41:08.739Z,972.69
2023-03-12T05:42:08.742Z,972.66
2023-03-12T05:43:08.727Z,972.61
2023-03-12T05:44:08.728Z,972.67
2023-03-12T05:45:08.682Z,972.71
2023-03-12T05:46:08.693Z,972.72
2023-03-12T05:47:08.652Z,972.61
2023-03-12T05:48:08.648Z,972.64
2023-03-12T05:49:08.636Z,972.68
2023-03-12T05:50:08.615Z,972.65
2023-03-12T05:51:08.605Z,972.65
2023-03-12T05:52:08.589Z,972.67
2023-03-12T05:53:08.577Z,972.73
2023-03-12T05:54:08.557Z,972.72
2023-03-12T05:55:08.549Z,972.71
2023-03-12T05:56:08.536Z,972.67
2023-03-12T05:57:08.524Z,972.69
2023-03-12T05:58:08.507Z,972.68
2023-03-12T05:59:08.493Z,972.74
2023-03-12T06:00:08.523Z,972.67
2023-03-12T06:01:08.462Z,972.64
2023-03-12T06:02:08.500Z,972.61
2023-03-12T06:03:08.545Z,972.64
2023-03-12T06:04:08.434Z,972.69
2023-03-12T06:05:08.412Z,972.72
2023-03-12T06:06:08.445Z,972.71
2023-03-12T06:07:08.446Z,972.71
2023-03-12T06:08:08.482Z,972.75
2023-03-12T06:09:08.519Z,972.76
2023-03-12T06:10:08.359Z,972.72
2023-03-12T06:11:08.337Z,972.72
2023-03-12T06:12:08.435Z,972.72
2023-03-12T06:13:08.502Z,972.72
2023-03-12T06:14:08.497Z,972.80
2023-03-12T06:15:08.332Z,972.88
2023-03-12T06:16:08.544Z,972.78
2023-03-12T06:17:08.246Z,972.81
2023-03-12T06:18:08.229Z,972.83
2023-03-12T06:19:08.226Z,972.76
2023-03-12T06:20:08.244Z,972.82
2023-03-12T06:21:08.198Z,972.84
2023-03-12T06:22:08.182Z,972.81
2023-03-12T06:23:08.170Z,972.78
2023-03-12T06:24:08.153Z,972.85
2023-03-12T06:25:08.138Z,972.84
2023-03-12T06:26:08.127Z,972.70
2023-03-12T06:27:08.120Z,972.87
2023-03-12T06:28:08.109Z,972.84
2023-03-12T06:29:08.095Z,972.75
2023-03-12T06:30:08.081Z,972.75
2023-03-12T06:31:08.145Z,972.71
2023-03-12T06:32:08.070Z,972.72
2023-03-12T06:33:08.037Z,972.75
2023-03-12T06:34:08.021Z,972.76
2023-03-12T06:35:08.009Z,972.74
2023-03-12T06:36:08.000Z,972.74
2023-03-12T06:37:07.984Z,972.85
2023-03-12T06:38:07.970Z,972.77
2023-03-12T06:39:07.970Z,972.69
2023-03-12T06:40:07.946Z,972.75
2023-03-12T06:41:07.950Z,972.68
2023-03-12T06:42:07.936Z,972.66
2023-03-12T06:43:07.905Z,972.64
2023-03-12T06:44:07.897Z,972.70
2023-03-12T06:45:07.882Z,972.67
2023-03-12T06:46:08.003Z,972.66
2023-03-12T06:47:07.861Z,972.72
2023-03-12T06:48:07.866Z,972.70
2023-03-12T06:49:07.839Z,972.67
2023-03-12T06:50:07.835Z,972.70
2023-03-12T06:51:07.808Z,972.68
2023-03-12T06:52:07.803Z,972.62
2023-03-12T06:53:07.772Z,972.68
2023-03-12T06:54:07.761Z,972.70
2023-03-12T06:55:07.747Z,972.70
2023-03-12T06:56:07.753Z,972.74
2023-03-12T06:57:07.726Z,972.74
2023-03-12T06:58:07.714Z,972.78
2023-03-12T06:59:07.699Z,972.78
2023-03-12T07:00:07.688Z,972.68
2023-03-12T07:01:07.699Z,972.74
2023-03-12T07:02:07.978Z,972.72
2023-03-12T07:03:07.653Z,972.74
2023-03-12T07:04:07.660Z,972.77
2023-03-12T07:05:07.766Z,972.72
2023-03-12T07:06:07.607Z,972.74
2023-03-12T07:07:07.596Z,972.74
2023-03-12T07:08:07.583Z,972.80
2023-03-12T07:09:07.576Z,972.85
2023-03-12T07:10:07.557Z,972.84
2023-03-12T07:11:07.544Z,972.82
2023-03-12T07:12:07.536Z,972.74
2023-03-12T07:13:07.525Z,972.80
2023-03-12T07:14:07.509Z,972.81
2023-03-12T07:15:07.496Z,972.84
2023-03-12T07:16:07.564Z,972.88
2023-03-12T07:17:07.471Z,972.89
2023-03-12T07:18:07.460Z,972.93
2023-03-12T07:19:07.447Z,972.91
2023-03-12T07:20:07.457Z,972.93
2023-03-12T07:21:07.417Z,972.95
2023-03-12T07:22:07.406Z,972.97
2023-03-12T07:23:07.395Z,972.94
2023-03-12T07:24:07.380Z,972.90
2023-03-12T07:25:07.371Z,972.83
2023-03-12T07:26:07.375Z,972.87
2023-03-12T07:27:07.345Z,972.84
2023-03-12T07:28:07.341Z,972.96
2023-03-12T07:29:07.311Z,972.92
2023-03-12T07:30:07.307Z,972.90
2023-03-12T07:31:07.410Z,972.87
2023-03-12T07:32:07.280Z,972.89
2023-03-12T07:33:07.404Z,972.93
2023-03-12T07:34:07.388Z,972.92
2023-03-12T07:35:07.260Z,972.89
2023-03-12T07:36:07.431Z,972.96
2023-03-12T07:37:07.215Z,972.92
2023-03-12T07:38:07.246Z,972.90
2023-03-12T07:39:07.189Z,972.87
2023-03-12T07:40:07.249Z,972.92
2023-03-12T07:41:07.243Z,972.86
2023-03-12T07:42:07.197Z,972.87
2023-03-12T07:43:07.127Z,972.85
2023-03-12T07:44:07.189Z,972.84
2023-03-12T07:45:07.158Z,972.86
2023-03-12T07:46:07.085Z,972.85
2023-03-12T07:47:22.721Z,972.81
2023-03-12T07:48:08.243Z,972.78
2023-03-12T07:49:07.043Z,972.76
2023-03-12T07:50:07.108Z,972.73
2023-03-12T07:51:07.069Z,972.70
2023-03-12T07:52:07.087Z,972.74
2023-03-12T07:53:06.996Z,972.69
2023-03-12T07:54:06.990Z,972.56
2023-03-12T07:55:07.205Z,972.54
2023-03-12T07:56:07.345Z,972.58
2023-03-12T07:57:07.109Z,972.61
2023-03-12T07:58:07.035Z,972.56
2023-03-12T07:59:07.126Z,972.63
2023-03-12T08:00:06.943Z,972.60
2023-03-12T08:01:06.979Z,972.58
2023-03-12T08:02:06.979Z,972.62
2023-03-12T08:03:07.011Z,972.55
2023-03-12T08:04:07.029Z,972.53
2023-03-12T08:05:06.968Z,972.53
2023-03-12T08:06:06.882Z,972.54
2023-03-12T08:07:09.162Z,972.55
2023-03-12T08:08:06.811Z,972.59
2023-03-12T08:09:06.777Z,972.63
2023-03-12T08:10:06.850Z,972.58
2023-03-12T08:11:06.752Z,972.62
2023-03-12T08:12:06.786Z,972.63
2023-03-12T08:13:06.853Z,972.60
2023-03-12T08:14:06.823Z,972.71
2023-03-12T08:15:06.702Z,972.65
2023-03-12T08:16:09.338Z,972.64
2023-03-12T08:17:06.672Z,972.67
2023-03-12T08:18:06.657Z,972.66
2023-03-12T08:19:06.643Z,972.62
2023-03-12T08:20:06.632Z,972.61
2023-03-12T08:21:06.624Z,972.66
2023-03-12T08:22:06.621Z,972.70
2023-03-12T08:23:06.592Z,972.67
2023-03-12T08:24:06.603Z,972.65
2023-03-12T08:25:06.568Z,972.64
2023-03-12T08:26:06.546Z,972.64
2023-03-12T08:27:06.535Z,972.61
2023-03-12T08:28:06.524Z,972.54
2023-03-12T08:29:06.507Z,972.56
2023-03-12T08:30:06.633Z,972.63
2023-03-12T08:31:06.488Z,972.57
2023-03-12T08:32:06.541Z,972.58
2023-03-12T08:33:06.577Z,972.59
2023-03-12T08:34:06.441Z,972.61
2023-03-12T08:35:06.431Z,972.60
2023-03-12T08:36:06.476Z,972.59
2023-03-12T08:37:06.402Z,972.59
2023-03-12T08:38:06.390Z,972.63
2023-03-12T08:39:06.381Z,972.57
2023-03-12T08:40:06.389Z,972.61
2023-03-12T08:41:06.350Z,972.58
2023-03-12T08:42:06.342Z,972.60
2023-03-12T08:43:06.329Z,972.62
2023-03-12T08:44:06.314Z,972.65
2023-03-12T08:45:06.297Z,972.67
2023-03-12T08:46:06.346Z,972.72
2023-03-12T08:47:06.276Z,972.69
2023-03-12T08:48:06.258Z,972.67
2023-03-12T08:49:06.245Z,972.71
2023-03-12T08:50:06.234Z,972.63
2023-03-12T08:51:06.220Z,972.67
2023-03-12T08:52:06.353Z,972.65
2023-03-12T08:53:06.189Z,972.63
2023-03-12T08:54:06.184Z,972.62
2023-03-12T08:55:06.186Z,972.66
2023-03-12T08:56:06.178Z,972.65
2023-03-12T08:57:06.145Z,972.68
2023-03-12T08:58:06.127Z,972.61
2023-03-12T08:59:06.516Z,972.56
2023-03-12T09:00:06.094Z,972.54
2023-03-12T09:01:06.088Z,972.54
2023-03-12T09:02:06.086Z,972.55
2023-03-12T09:03:06.091Z,972.46
2023-03-12T09:04:06.127Z,972.49
2023-03-12T09:05:06.040Z,972.54
2023-03-12T09:06:06.041Z,972.48
2023-03-12T09:07:06.002Z,972.57
2023-03-12T09:08:05.991Z,972.58
2023-03-12T09:09:05.994Z,972.53
2023-03-12T09:10:05.968Z,972.57
2023-03-12T09:11:05.949Z,972.61
2023-03-12T09:12:05.976Z,972.66
2023-03-12T09:13:05.929Z,972.59
2023-03-12T09:15:05.916Z,972.66
2023-03-12T09:16:05.886Z,972.68
2023-03-12T09:17:05.879Z,972.76
2023-03-12T09:18:05.865Z,972.67
2023-03-12T09:19:05.861Z,972.71
2023-03-12T09:20:05.849Z,972.74
2023-03-12T09:21:05.819Z,972.71
2023-03-12T09:22:05.807Z,972.65
2023-03-12T09:23:07.720Z,972.69
2023-03-12T09:24:05.788Z,972.73
2023-03-12T09:25:05.760Z,972.69
2023-03-12T09:26:05.765Z,972.72
2023-03-12T09:27:05.750Z,972.68
2023-03-12T09:28:06.103Z,972.78
2023-03-12T09:29:05.706Z,972.77
2023-03-12T09:30:05.696Z,972.76
2023-03-12T09:31:05.756Z,972.72
2023-03-12T09:32:06.061Z,972.83
2023-03-12T09:33:05.650Z,972.76
2023-03-12T09:34:05.640Z,972.71
2023-03-12T09:35:05.634Z,972.70
2023-03-12T09:36:05.726Z,972.64
2023-03-12T09:37:05.600Z,972.70
2023-03-12T09:38:05.591Z,972.74
2023-03-12T09:39:05.593Z,972.64
2023-03-12T09:40:05.559Z,972.62
2023-03-12T09:41:05.554Z,972.62
2023-03-12T09:42:05.528Z,972.64
2023-03-12T09:43:05.519Z,972.63
2023-03-12T09:44:05.528Z,972.72
2023-03-12T09:45:05.494Z,972.68
2023-03-12T09:46:05.519Z,972.57
2023-03-12T09:47:05.469Z,972.62
2023-03-12T09:48:05.464Z,972.58
2023-03-12T09:49:05.449Z,972.61
2023-03-12T09:50:05.435Z,972.53
2023-03-12T09:51:05.412Z,972.54
2023-03-12T09:52:05.396Z,972.56
2023-03-12T09:53:05.386Z,972.54
2023-03-12T09:54:05.376Z,972.60
2023-03-12T09:55:05.372Z,972.57
2023-03-12T09:56:05.347Z,972.51
2023-03-12T09:57:05.332Z,972.61
2023-03-12T09:58:05.329Z,972.54
2023-03-12T09:59:05.306Z,972.58
2023-03-12T10:00:05.322Z,972.57
2023-03-12T10:01:05.276Z,972.61
2023-03-12T10:02:05.269Z,972.62
2023-03-12T10:03:05.309Z,972.57
2023-03-12T10:04:05.247Z,972.53
2023-03-12T10:05:05.294Z,972.52
2023-03-12T10:06:05.256Z,972.50
2023-03-12T10:07:05.206Z,972.54
2023-03-12T10:08:22.860Z,972.52
2023-03-12T10:09:06.201Z,972.67
2023-03-12T10:10:05.156Z,972.60
2023-03-12T10:11:05.146Z,972.66
2023-03-12T10:12:05.170Z,972.72
2023-03-12T10:13:05.118Z,972.70
2023-03-12T10:14:05.111Z,972.71
2023-03-12T10:15:05.100Z,972.72
2023-03-12T10:16:05.184Z,972.70
2023-03-12T10:17:05.064Z,972.70
2023-03-12T10:18:05.226Z,972.69
2023-03-12T10:19:05.099Z,972.78
2023-03-12T10:20:05.032Z,972.77
2023-03-12T10:21:05.024Z,972.79
2023-03-12T10:22:05.002Z,972.79
2023-03-12T10:23:04.986Z,972.84
2023-03-12T10:24:04.970Z,972.79
2023-03-12T10:25:04.974Z,972.82
2023-03-12T10:26:04.947Z,972.76
2023-03-12T10:27:04.935Z,972.75
2023-03-12T10:28:04.920Z,972.77
2023-03-12T10:29:04.909Z,972.78
2023-03-12T10:30:04.897Z,972.81
2023-03-12T10:31:05.037Z,972.82
2023-03-12T10:32:04.901Z,972.85
2023-03-12T10:33:04.846Z,972.77
2023-03-12T10:34:04.845Z,972.85
2023-03-12T10:35:04.819Z,972.81
2023-03-12T10:36:04.899Z,972.82
2023-03-12T10:37:04.819Z,972.80
2023-03-12T10:38:04.816Z,972.82
2023-03-12T10:39:04.770Z,972.80
2023-03-12T10:40:04.764Z,972.68
2023-03-12T10:41:04.740Z,972.74
2023-03-12T10:42:04.760Z,972.71
2023-03-12T10:43:04.725Z,972.72
2023-03-12T10:44:04.709Z,972.72
2023-03-12T10:45:04.694Z,972.81
2023-03-12T10:46:04.746Z,972.73
2023-03-12T10:47:04.665Z,972.87
2023-03-12T10:48:04.698Z,972.87
2023-03-12T10:49:04.635Z,972.82
2023-03-12T10:50:04.629Z,972.98
2023-03-12T10:51:04.612Z,972.99
2023-03-12T10:52:04.598Z,972.93
2023-03-12T10:53:04.588Z,973.05
2023-03-12T10:54:04.572Z,973.03
2023-03-12T10:55:04.569Z,973.01
2023-03-12T10:56:04.551Z,973.12
2023-03-12T10:57:04.540Z,973.01
2023-03-12T10:58:04.527Z,973.09
2023-03-12T10:59:04.504Z,973.02
2023-03-12T11:00:04.496Z,973.08
2023-03-12T11:01:04.483Z,973.13
2023-03-12T11:02:04.584Z,973.08
2023-03-12T11:03:04.453Z,973.13
2023-03-12T11:04:04.469Z,973.10
2023-03-12T11:05:04.430Z,973.06
2023-03-12T11:06:04.506Z,973.05
2023-03-12T11:07:04.403Z,973.06
2023-03-12T11:08:04.389Z,973.09
2023-03-12T11:09:16.237Z,973.12
2023-03-12T11:10:05.392Z,973.08
2023-03-12T11:11:04.354Z,973.11
2023-03-12T11:12:04.332Z,973.05
2023-03-12T11:13:04.319Z,973.07
2023-03-12T11:14:04.308Z,973.14
2023-03-12T11:15:04.300Z,973.08
2023-03-12T11:16:04.321Z,973.03
2023-03-12T11:17:04.281Z,973.16
2023-03-12T11:18:04.259Z,973.17
2023-03-12T11:19:04.247Z,973.17
2023-03-12T11:20:04.254Z,973.15
2023-03-12T11:21:04.315Z,973.17
2023-03-12T11:22:04.204Z,973.12
2023-03-12T11:23:04.195Z,973.17
2023-03-12T11:24:04.179Z,973.12
2023-03-12T11:25:04.171Z,973.12
2023-03-12T11:26:04.154Z,973.11
2023-03-12T11:27:04.141Z,973.16
2023-03-12T11:28:04.156Z,973.13
2023-03-12T11:29:04.122Z,973.20
2023-03-12T11:30:04.093Z,973.22
2023-03-12T11:31:04.103Z,973.22
2023-03-12T11:32:04.132Z,973.32
2023-03-12T11:33:04.130Z,973.21
2023-03-12T11:34:04.044Z,973.28
2023-03-12T11:35:04.033Z,973.25
2023-03-12T11:36:04.048Z,973.28
2023-03-12T11:37:04.005Z,973.28
2023-03-12T11:38:04.014Z,973.32
2023-03-12T11:39:03.981Z,973.10
2023-03-12T11:40:03.969Z,973.07
2023-03-12T11:41:03.955Z,973.02
2023-03-12T11:42:03.942Z,973.02
2023-03-12T11:43:03.932Z,973.03
2023-03-12T11:44:03.910Z,973.05
2023-03-12T11:45:03.924Z,972.87
2023-03-12T11:46:03.893Z,972.79
2023-03-12T11:47:03.874Z,972.81
2023-03-12T11:48:03.864Z,972.92
2023-03-12T11:49:03.845Z,972.91
2023-03-12T11:50:03.853Z,972.96
2023-03-12T11:51:03.839Z,972.95
2023-03-12T11:52:03.855Z,972.97
2023-03-12T11:53:03.812Z,972.89
2023-03-12T11:54:03.786Z,972.85
2023-03-12T11:55:03.787Z,972.95
2023-03-12T11:56:03.873Z,972.79
2023-03-12T11:57:03.787Z,972.80
2023-03-12T11:58:03.729Z,972.85
2023-03-12T11:59:03.725Z,972.91
2023-03-12T12:00:03.712Z,972.95
2023-03-12T12:01:03.691Z,973.00
2023-03-12T12:02:03.740Z,972.92
2023-03-12T12:03:03.716Z,972.93
2023-03-12T12:04:03.645Z,972.83
2023-03-12T12:05:03.632Z,973.00
2023-03-12T12:06:03.617Z,973.02
2023-03-12T12:07:03.614Z,973.10
2023-03-12T12:08:03.621Z,973.01
2023-03-12T12:09:03.582Z,972.97
2023-03-12T12:10:03.569Z,973.01
2023-03-12T12:11:03.555Z,972.96
2023-03-12T12:12:05.573Z,973.04
2023-03-12T12:13:03.530Z,972.91
2023-03-12T12:14:03.508Z,972.86
2023-03-12T12:15:03.494Z,972.91
2023-03-12T12:16:03.586Z,972.83
2023-03-12T12:17:03.480Z,972.87
2023-03-12T12:18:03.460Z,972.62
2023-03-12T12:19:04.654Z,972.42
2023-03-12T12:20:03.433Z,972.54
2023-03-12T12:21:03.416Z,972.57
2023-03-12T12:22:03.402Z,972.69
2023-03-12T12:23:03.392Z,972.73
2023-03-12T12:24:03.468Z,972.63
2023-03-12T12:25:03.366Z,972.63
2023-03-12T12:26:03.358Z,972.62
2023-03-12T12:27:03.339Z,972.53
2023-03-12T12:28:03.330Z,972.50
2023-03-12T12:29:03.312Z,972.48